Simon Freuler

Jefe de ojeadores - Luzern
19 Nov 2028
Domingo
Continuar

Personalidad

Adaptabilidad (6) Ambición (17) Controversia (10) Lealtad (5) Presión (3) Profesionalismo (1) Deportividad (12) Temperamento (19)

Perfil

Estilo de dirección Democrático
Licencia Nacional B
Determinación 12
Gestión de personas 6
Motivación 10
Disciplina 10
Satisfacción laboral
100%
Fatiga
0%
Cargo Jefe de ojeadores
Salario 88.1K p/s
Contrato 14.03.2029

Rendimiento

Comportamiento Bueno
Efectividad del entrenamiento
38%
Desarrollo de jugadores
35%
Prevención de lesiones
55%
Implementación táctica
45%

Eventos recientes

Asistió a una reunión de captación ahora
Recomendó un objetivo de fichaje ahora
Recomendó un objetivo de fichaje ahora
Recomendó un objetivo de fichaje ahora
Recomendó un objetivo de fichaje ahora
Recomendó un objetivo de fichaje ahora
Recomendó un objetivo de fichaje 7d atrás
Recomendó un objetivo de fichaje 7d atrás

Actualmente siguiendo

119
Jugador Club Estado Habilidad Confianza Observado Última observación Último voto
Edimilson Schär Grasshopper Activo 108 / 121 69% 1 14.08.2028 Aprobar
Alphadjo Cissé Lecce Activo 131 / 134 40% 1 31.07.2028 -
Louis Zecevic-John Colchester United Activo 99 / 117 40% 1 31.07.2028 -
Igor Tyjon Barrow AFC Negociando 120 / 133 40% 1 31.07.2028 -
Lennart Karl TSG Hoffenheim Activo 139 / 152 40% 1 05.07.2028 -
Leo Pecover Swindon Town Activo 97 / 107 40% 1 05.07.2028 -
Nana Nuhu WAFA Activo 87 / 91 40% 1 05.07.2028 -
Josh Nichols Oldham Athletic Activo 124 / 126 40% 3 19.06.2028 -
Tyler Fletcher Rotherham United Activo 112 / 113 40% 1 19.06.2028 -
Gabriel Mec Feirense Activo 128 / 129 40% 1 19.06.2028 -
Honest Ahanor Atalanta Activo 133 / 144 40% 3 17.04.2028 -
Andrija Bulatović Chamois Niortais Activo 124 / 136 40% 1 17.04.2028 -
Matvey Bardachev Zenit Activo 104 / 103 40% 1 17.04.2028 -
Martim Cunha Porto Activo 112 / 119 40% 2 10.04.2028 -
Noahkai Banks FC Augsburg Activo 138 / 143 40% 1 10.04.2028 -
Konta Ismaily Activo 90 / 114 40% 1 09.04.2028 -
Lucas Høgsberg RC Strasbourg Activo 147 / 141 40% 1 09.04.2028 -
Jorge Salinas Racing Santander Activo 130 / 139 40% 3 08.04.2028 -
Izan Merino Málaga Activo 129 / 131 40% 2 08.04.2028 -
Josh Acheampong Everton Activo 139 / 149 40% 2 08.04.2028 -
Kiani Inge Groningen Activo 114 / 121 40% 1 07.04.2028 -
Bernardo Lima Porto Activo 113 / 123 40% 1 06.04.2028 -
Daniel Banjaqui Benfica Activo 129 / 130 40% 2 05.04.2028 -
Pape Diong Westerlo Activo 123 / 123 40% 1 11.03.2028 -
Cheveyo Tsawa Club Brugge Activo 130 / 131 40% 1 06.03.2028 -
Tobiáš Pališčák Zlin Activo 105 / 107 40% 1 10.02.2028 -
Jorthy Mokio ADO Den Haag Activo 136 / 143 40% 1 07.02.2028 -
Samuel Marques Grasshopper Activo 105 / 118 69% 1 31.01.2028 Aprobar
Lucas Nicol Mjondalen Activo 85 / 96 40% 1 25.01.2028 -
Matias Siltanen Malmo FF Activo 126 / 133 40% 1 25.01.2028 -
Felipe Faúndez O'Higgins Activo 90 / 107 40% 1 17.01.2028 -
Mao Hosoya Santos Activo 134 / 135 67% 1 01.01.2028 Aprobar
Alex Amaefula Kun Khalifat Activo 84 / 94 40% 1 17.08.2027 -
Ethan Williams Peterborough United Activo 115 / 117 40% 1 09.08.2027 -
Sindre Walle Egeli Udinese Activo 142 / 135 40% 1 09.08.2027 -
Gianluca Prestianni Benfica Activo 137 / 141 40% 1 09.08.2027 -
Othmane Maamma Watford Activo 126 / 135 40% 3 05.07.2027 -
Juan-José Perea Zurich Activo 125 / 129 69% 1 05.07.2027 Aprobar
Stevan Manuel Benfica Activo 95 / 107 40% 1 05.07.2027 -
Pedro de la Vega Columbus Crew Activo 133 / 134 66% 1 01.06.2027 Aprobar
Kristoffer Lund Birmingham Activo 135 / 120 40% 1 30.05.2027 -
Bosun Lawal Stoke City Activo 130 / 132 40% 5 29.05.2027 -
Pelle Mattsson Norwich City Activo 124 / 128 40% 3 29.05.2027 -
Idris El Mizouni Leyton Orient Activo 118 / 108 40% 1 29.05.2027 -
Jack Currie Oxford United Activo 123 / 127 40% 3 28.05.2027 -
Lee Buchanan Sheffield Wednesday Activo 129 / 127 40% 3 28.05.2027 -
Toby Collyer West Bromwich Albion Activo 133 / 130 40% 2 28.05.2027 -
Oliver Skipp Leicester City Activo 131 / 127 40% 3 27.05.2027 -
Harry Clarke Preston Activo 128 / 130 40% 10 27.05.2027 -
Lewis Bate Stockport County Activo 119 / 130 40% 4 26.05.2027 -
Sanel Šaljić Austria Wien Activo 121 / 124 40% 1 26.05.2027 -
Juanlu Bournemouth Activo 148 / 157 40% 6 23.05.2027 -
Brooke Norton-Cuffy Hull City Activo 131 / 141 40% 10 22.05.2027 -
Leighton Clarkson Blackpool Activo 115 / 109 40% 1 22.05.2027 -
Max Conway Bolton Wanderers Activo 124 / 115 40% 1 22.05.2027 -
Dennis Cirkin Queens Park Rangers Activo 133 / 137 40% 7 21.05.2027 -
Jacob Greaves Ipswich Town Activo 132 / 127 40% 7 21.05.2027 -
Nicolas Madsen Queens Park Rangers Activo 131 / 126 40% 3 20.05.2027 -
Shea Charles Southampton Activo 130 / 139 40% 5 20.05.2027 -
Max Bird Birmingham Activo 137 / 134 40% 9 20.05.2027 -
Darlin Yongwa Norwich City Activo 127 / 132 40% 6 19.05.2027 -
Derry Murkin Derby County Activo 124 / 118 40% 1 19.05.2027 -
Alfie Gilchrist West Bromwich Albion Activo 120 / 131 40% 3 18.05.2027 -
Harrison Burrows Sheffield United Activo 121 / 122 40% 1 18.05.2027 -
Georgie Gent Barnsley Activo 108 / 117 40% 2 17.05.2027 -
Caleb Yirenkyi Coventry City Activo 140 / 142 40% 4 17.05.2027 -
Moussa Baradji Blackburn Rovers Activo 123 / 127 40% 2 17.05.2027 -
Kirill Glebov CSKA Moscow Activo 129 / 117 40% 1 17.05.2027 -
Riley Owen Stevenage Activo 104 / 108 40% 1 16.05.2027 -
Welington Southampton Activo 139 / 131 40% 5 13.05.2027 -
Alfie Doughty Millwall Activo 135 / 127 40% 3 13.05.2027 -
Alessandro Buongiorno Cagliari Activo 151 / 164 40% 5 12.05.2027 -
Habib Diarra Sunderland Activo 142 / 150 40% 4 12.05.2027 -
Sascha Britschgi AC Milan Activo 112 / 126 40% 1 09.05.2027 -
Aidan Morris Middlesbrough Activo 126 / 125 40% 3 06.05.2027 -
Enrico Delprato Parma Activo 142 / 136 40% 3 06.05.2027 -
Max Johnston Derby County Activo 126 / 129 40% 5 05.05.2027 -
Ethan Pye Stockport County Activo 112 / 121 40% 1 05.05.2027 -
Luke McNally Bristol City Activo 128 / 131 40% 2 03.05.2027 -
Terry Devlin Portsmouth Activo 123 / 120 40% 3 02.05.2027 -
Adam Randell Bristol City Activo 129 / 128 40% 2 02.05.2027 -
Lewis Gibson Preston Activo 126 / 122 40% 1 02.05.2027 -
Alexander Prass TSG Hoffenheim Activo 133 / 143 40% 3 22.04.2027 -
Lewis Ferguson Bologna Activo 146 / 142 40% 3 21.04.2027 -
Mohamadou Kanté Crawley Town Activo 110 / 116 40% 1 21.04.2027 -
Jonathan Varane Queens Park Rangers Activo 133 / 123 40% 3 19.04.2027 -
Ronnie Edwards Queens Park Rangers Activo 129 / 132 40% 1 18.04.2027 -
Milan van Ewijk Coventry City Activo 129 / 122 40% 5 15.04.2027 -
Alfie Devine Preston Activo 122 / 129 40% 1 13.04.2027 -
Brian De Keersmaecker Oxford United Activo 123 / 130 40% 1 13.04.2027 -
Samuele di Benedetto Twente Activo 118 / 110 40% 1 10.04.2027 -
Jacques Ekomié Wrexham Activo 128 / 137 40% 2 08.04.2027 -
Lucas Da Cunha Como Activo 146 / 139 40% 1 07.04.2027 -
Billy Gilmour Napoli Activo 148 / 149 40% 2 06.04.2027 -
Xavier Simons Bolton Wanderers Activo 125 / 130 40% 1 03.04.2027 -
Aaron Morley Wycombe Wanderers Activo 117 / 109 40% 1 30.03.2027 -
Ryan Sessegnon Fulham Activo 147 / 153 40% 4 27.03.2027 -
Japhet Tanganga Sheffield United Activo 134 / 136 40% 1 23.03.2027 -
Tariq Lamptey Queens Park Rangers Activo 133 / 142 40% 1 20.03.2027 -
Adis Jašić Zamalek Activo 133 / 121 40% 2 14.03.2027 -
Raoul Bellanova Atalanta Activo 143 / 151 40% 1 14.03.2027 -
Álex Centelles Levski Activo 135 / 122 40% 2 10.03.2027 -
Max Rosenfelder SC Freiburg Activo 137 / 126 40% 1 10.03.2027 -
Michael Baidoo Plymouth Argyle Activo 118 / 123 40% 4 06.03.2027 -
Alex Scott Bournemouth Activo 150 / 159 40% 2 01.03.2027 -
Zakaria El Ouahdi Hamburger SV Activo 135 / 133 40% 1 15.02.2027 -
Kane Wilson Milton Keynes Dons Activo 108 / 109 40% 1 13.02.2027 -
Tyreece Campbell Charlton Athletic Activo 124 / 119 40% 1 05.02.2027 -
Teden Mengi Luton Town Activo 130 / 114 40% 1 05.02.2027 -
Rodrigo Muniz Fulham Activo 134 / 145 40% 1 03.02.2027 -
Bamba Dieng Crvena Zvezda Activo 119 / 120 40% 1 02.02.2027 -
Yousef Salech Cardiff City Activo 121 / 119 40% 1 02.02.2027 -
Petter Nosa Dahl Rapid Wien Activo 126 / 123 40% 1 01.02.2027 -
Daniel Kyerewaa Reading Activo 117 / 104 40% 1 19.01.2027 -
Marcelo Allende Mamelodi Sundowns Activo 125 / 135 40% 1 19.01.2027 -
Sampson Dweh Mallorca Activo 133 / 134 66% 1 01.01.2027 Aprobar
Théo Berdayes Sion Activo 101 / 106 65% 1 24.08.2026 Aprobar
Tadeo Allende Inter Miami CF Activo 124 / 110 40% 1 24.08.2026 -
Lars Winter Mattersburg Activo 108 / 116 40% 1 05.08.2026 -